sensor_id;sensor_type;location;lat;lon;timestamp;temperature;humidity
68274;SHT30;55104;47.356;19.448;2023-02-15T00:01:12;-2.23;93.03
68274;SHT30;55104;47.356;19.448;2023-02-15T00:04:19;-2.25;92.50
68274;SHT30;55104;47.356;19.448;2023-02-15T00:07:21;-2.30;91.86
68274;SHT30;55104;47.356;19.448;2023-02-15T00:10:23;-2.32;92.28
68274;SHT30;55104;47.356;19.448;2023-02-15T00:13:26;-2.30;92.34
68274;SHT30;55104;47.356;19.448;2023-02-15T00:16:27;-2.29;92.41
68274;SHT30;55104;47.356;19.448;2023-02-15T00:19:30;-2.30;92.36
68274;SHT30;55104;47.356;19.448;2023-02-15T00:22:32;-2.33;92.39
68274;SHT30;55104;47.356;19.448;2023-02-15T00:25:34;-2.32;92.66
68274;SHT30;55104;47.356;19.448;2023-02-15T00:28:36;-2.36;92.41
68274;SHT30;55104;47.356;19.448;2023-02-15T00:31:39;-2.43;92.66
68274;SHT30;55104;47.356;19.448;2023-02-15T00:34:41;-2.44;93.23
68274;SHT30;55104;47.356;19.448;2023-02-15T00:37:43;-2.45;92.57
68274;SHT30;55104;47.356;19.448;2023-02-15T00:40:52;-2.48;92.30
68274;SHT30;55104;47.356;19.448;2023-02-15T00:43:54;-2.55;92.99
68274;SHT30;55104;47.356;19.448;2023-02-15T00:46:56;-2.55;92.44
68274;SHT30;55104;47.356;19.448;2023-02-15T00:49:58;-2.54;92.46
68274;SHT30;55104;47.356;19.448;2023-02-15T00:53:01;-2.48;93.14
68274;SHT30;55104;47.356;19.448;2023-02-15T00:56:03;-2.45;93.24
68274;SHT30;55104;47.356;19.448;2023-02-15T00:59:05;-2.44;93.02
68274;SHT30;55104;47.356;19.448;2023-02-15T01:02:08;-2.54;92.75
68274;SHT30;55104;47.356;19.448;2023-02-15T01:05:10;-2.54;93.03
68274;SHT30;55104;47.356;19.448;2023-02-15T01:08:12;-2.61;92.64
68274;SHT30;55104;47.356;19.448;2023-02-15T01:11:19;-2.65;92.88
68274;SHT30;55104;47.356;19.448;2023-02-15T01:14:24;-2.68;93.38
68274;SHT30;55104;47.356;19.448;2023-02-15T01:17:26;-2.71;93.42
68274;SHT30;55104;47.356;19.448;2023-02-15T01:20:29;-2.68;92.88
68274;SHT30;55104;47.356;19.448;2023-02-15T01:23:32;-2.68;93.10
68274;SHT30;55104;47.356;19.448;2023-02-15T01:26:34;-2.72;92.70
68274;SHT30;55104;47.356;19.448;2023-02-15T01:29:37;-2.75;92.56
68274;SHT30;55104;47.356;19.448;2023-02-15T01:32:39;-2.73;92.78
68274;SHT30;55104;47.356;19.448;2023-02-15T01:35:42;-2.79;92.53
68274;SHT30;55104;47.356;19.448;2023-02-15T01:38:45;-2.85;92.39
68274;SHT30;55104;47.356;19.448;2023-02-15T01:41:47;-2.88;92.11
68274;SHT30;55104;47.356;19.448;2023-02-15T01:51:03;-2.93;92.55
68274;SHT30;55104;47.356;19.448;2023-02-15T01:54:21;-2.95;93.00
68274;SHT30;55104;47.356;19.448;2023-02-15T01:57:27;-2.95;93.04
68274;SHT30;55104;47.356;19.448;2023-02-15T02:00:30;-2.96;92.59
68274;SHT30;55104;47.356;19.448;2023-02-15T02:04:00;-2.96;92.19
68274;SHT30;55104;47.356;19.448;2023-02-15T02:07:06;-2.97;92.68
68274;SHT30;55104;47.356;19.448;2023-02-15T02:10:13;-3.03;92.17
68274;SHT30;55104;47.356;19.448;2023-02-15T02:13:16;-3.02;92.11
68274;SHT30;55104;47.356;19.448;2023-02-15T02:20:01;-2.97;92.24
68274;SHT30;55104;47.356;19.448;2023-02-15T02:23:25;-2.92;92.53
68274;SHT30;55104;47.356;19.448;2023-02-15T02:30:19;-3.00;92.48
68274;SHT30;55104;47.356;19.448;2023-02-15T02:33:40;-2.99;92.46
68274;SHT30;55104;47.356;19.448;2023-02-15T02:40:48;-3.06;92.51
68274;SHT30;55104;47.356;19.448;2023-02-15T02:47:29;-3.13;92.80
68274;SHT30;55104;47.356;19.448;2023-02-15T02:50:32;-3.16;92.64
68274;SHT30;55104;47.356;19.448;2023-02-15T02:53:34;-3.17;93.01
68274;SHT30;55104;47.356;19.448;2023-02-15T02:56:41;-3.16;92.84
68274;SHT30;55104;47.356;19.448;2023-02-15T02:59:46;-3.16;92.37
68274;SHT30;55104;47.356;19.448;2023-02-15T03:06:44;-3.14;92.26
68274;SHT30;55104;47.356;19.448;2023-02-15T03:09:51;-3.16;92.01
68274;SHT30;55104;47.356;19.448;2023-02-15T03:12:53;-3.19;91.85
68274;SHT30;55104;47.356;19.448;2023-02-15T03:15:56;-3.19;92.16
68274;SHT30;55104;47.356;19.448;2023-02-15T03:19:27;-3.16;92.76
68274;SHT30;55104;47.356;19.448;2023-02-15T03:22:36;-3.16;92.90
68274;SHT30;55104;47.356;19.448;2023-02-15T03:26:03;-3.19;92.48
68274;SHT30;55104;47.356;19.448;2023-02-15T03:29:10;-3.20;92.70
68274;SHT30;55104;47.356;19.448;2023-02-15T03:32:14;-3.14;92.32
68274;SHT30;55104;47.356;19.448;2023-02-15T03:35:22;-3.17;92.43
68274;SHT30;55104;47.356;19.448;2023-02-15T03:38:33;-3.23;92.72
68274;SHT30;55104;47.356;19.448;2023-02-15T03:41:45;-3.24;93.26
68274;SHT30;55104;47.356;19.448;2023-02-15T03:45:05;-3.23;93.17
68274;SHT30;55104;47.356;19.448;2023-02-15T03:48:07;-3.28;92.92
68274;SHT30;55104;47.356;19.448;2023-02-15T03:51:17;-3.30;92.65
68274;SHT30;55104;47.356;19.448;2023-02-15T03:54:35;-3.34;92.28
68274;SHT30;55104;47.356;19.448;2023-02-15T03:57:48;-3.36;92.52
68274;SHT30;55104;47.356;19.448;2023-02-15T04:01:36;-3.40;92.99
68274;SHT30;55104;47.356;19.448;2023-02-15T04:04:58;-3.41;93.19
68274;SHT30;55104;47.356;19.448;2023-02-15T04:08:01;-3.41;92.95
68274;SHT30;55104;47.356;19.448;2023-02-15T04:11:03;-3.43;93.22
68274;SHT30;55104;47.356;19.448;2023-02-15T04:14:05;-3.48;93.34
68274;SHT30;55104;47.356;19.448;2023-02-15T04:17:33;-3.51;93.26
68274;SHT30;55104;47.356;19.448;2023-02-15T04:20:37;-3.55;93.09
68274;SHT30;55104;47.356;19.448;2023-02-15T04:23:58;-3.55;92.90
68274;SHT30;55104;47.356;19.448;2023-02-15T04:27:18;-3.58;92.88
68274;SHT30;55104;47.356;19.448;2023-02-15T04:30:27;-3.57;93.10
68274;SHT30;55104;47.356;19.448;2023-02-15T04:33:29;-3.62;93.05
68274;SHT30;55104;47.356;19.448;2023-02-15T04:36:31;-3.58;92.82
68274;SHT30;55104;47.356;19.448;2023-02-15T04:39:33;-3.61;92.19
68274;SHT30;55104;47.356;19.448;2023-02-15T04:42:36;-3.58;92.50
68274;SHT30;55104;47.356;19.448;2023-02-15T04:45:38;-3.62;92.56
68274;SHT30;55104;47.356;19.448;2023-02-15T04:48:40;-3.65;92.58
68274;SHT30;55104;47.356;19.448;2023-02-15T04:51:43;-3.65;92.02
68274;SHT30;55104;47.356;19.448;2023-02-15T04:54:45;-3.64;92.43
68274;SHT30;55104;47.356;19.448;2023-02-15T04:57:47;-3.65;92.70
68274;SHT30;55104;47.356;19.448;2023-02-15T05:00:49;-3.61;92.92
68274;SHT30;55104;47.356;19.448;2023-02-15T05:03:51;-3.59;92.63
68274;SHT30;55104;47.356;19.448;2023-02-15T05:06:53;-3.64;92.40
68274;SHT30;55104;47.356;19.448;2023-02-15T05:09:55;-3.61;92.88
68274;SHT30;55104;47.356;19.448;2023-02-15T05:12:57;-3.58;92.72
68274;SHT30;55104;47.356;19.448;2023-02-15T05:15:59;-3.57;93.26
68274;SHT30;55104;47.356;19.448;2023-02-15T05:19:02;-3.54;93.71
68274;SHT30;55104;47.356;19.448;2023-02-15T05:22:04;-3.55;93.36
68274;SHT30;55104;47.356;19.448;2023-02-15T05:25:08;-3.55;93.64
68274;SHT30;55104;47.356;19.448;2023-02-15T05:28:29;-3.54;94.25
68274;SHT30;55104;47.356;19.448;2023-02-15T05:31:32;-3.50;93.96
68274;SHT30;55104;47.356;19.448;2023-02-15T05:34:34;-3.50;94.23
68274;SHT30;55104;47.356;19.448;2023-02-15T05:37:37;-3.48;94.51
68274;SHT30;55104;47.356;19.448;2023-02-15T05:40:39;-3.44;94.43
68274;SHT30;55104;47.356;19.448;2023-02-15T05:43:41;-3.44;94.19
68274;SHT30;55104;47.356;19.448;2023-02-15T05:46:43;-3.44;94.51
68274;SHT30;55104;47.356;19.448;2023-02-15T05:49:45;-3.41;94.44
68274;SHT30;55104;47.356;19.448;2023-02-15T05:52:47;-3.44;94.58
68274;SHT30;55104;47.356;19.448;2023-02-15T05:55:53;-3.38;94.01
68274;SHT30;55104;47.356;19.448;2023-02-15T05:58:55;-3.36;94.15
68274;SHT30;55104;47.356;19.448;2023-02-15T06:01:58;-3.31;94.12
68274;SHT30;55104;47.356;19.448;2023-02-15T06:05:00;-3.30;94.38
68274;SHT30;55104;47.356;19.448;2023-02-15T06:08:02;-3.27;94.32
68274;SHT30;55104;47.356;19.448;2023-02-15T06:11:07;-3.23;94.46
68274;SHT30;55104;47.356;19.448;2023-02-15T06:14:09;-3.21;94.46
68274;SHT30;55104;47.356;19.448;2023-02-15T06:17:11;-3.14;94.50
68274;SHT30;55104;47.356;19.448;2023-02-15T06:20:13;-3.10;94.42
68274;SHT30;55104;47.356;19.448;2023-02-15T06:23:15;-3.00;94.43
68274;SHT30;55104;47.356;19.448;2023-02-15T06:26:18;-2.88;94.80
68274;SHT30;55104;47.356;19.448;2023-02-15T06:29:20;-2.78;94.78
68274;SHT30;55104;47.356;19.448;2023-02-15T06:32:22;-2.71;94.59
68274;SHT30;55104;47.356;19.448;2023-02-15T06:35:24;-2.62;94.86
68274;SHT30;55104;47.356;19.448;2023-02-15T06:38:26;-2.54;94.74
68274;SHT30;55104;47.356;19.448;2023-02-15T06:41:28;-2.47;94.67
68274;SHT30;55104;47.356;19.448;2023-02-15T06:44:30;-2.37;94.70
68274;SHT30;55104;47.356;19.448;2023-02-15T06:47:33;-2.20;95.12
68274;SHT30;55104;47.356;19.448;2023-02-15T06:50:35;-2.00;95.33
68274;SHT30;55104;47.356;19.448;2023-02-15T06:53:37;-1.81;95.46
68274;SHT30;55104;47.356;19.448;2023-02-15T06:56:39;-1.60;95.60
68274;SHT30;55104;47.356;19.448;2023-02-15T06:59:41;-1.33;95.97
68274;SHT30;55104;47.356;19.448;2023-02-15T07:02:44;-1.16;95.66
68274;SHT30;55104;47.356;19.448;2023-02-15T07:05:46;-0.93;95.83
68274;SHT30;55104;47.356;19.448;2023-02-15T07:08:51;-0.61;96.16
68274;SHT30;55104;47.356;19.448;2023-02-15T07:11:53;-0.41;95.70
68274;SHT30;55104;47.356;19.448;2023-02-15T07:15:17;-0.19;95.31
68274;SHT30;55104;47.356;19.448;2023-02-15T07:18:19;-0.10;94.93
68274;SHT30;55104;47.356;19.448;2023-02-15T07:21:21;0.09;95.03
68274;SHT30;55104;47.356;19.448;2023-02-15T07:24:24;0.28;94.83
68274;SHT30;55104;47.356;19.448;2023-02-15T07:27:26;0.60;94.77
68274;SHT30;55104;47.356;19.448;2023-02-15T07:30:28;0.83;94.54
68274;SHT30;55104;47.356;19.448;2023-02-15T07:33:31;0.98;93.77
68274;SHT30;55104;47.356;19.448;2023-02-15T07:36:34;1.15;93.32
68274;SHT30;55104;47.356;19.448;2023-02-15T07:39:37;1.29;92.99
68274;SHT30;55104;47.356;19.448;2023-02-15T07:42:39;1.45;92.70
68274;SHT30;55104;47.356;19.448;2023-02-15T07:45:42;1.50;92.36
68274;SHT30;55104;47.356;19.448;2023-02-15T07:48:44;1.63;92.50
68274;SHT30;55104;47.356;19.448;2023-02-15T07:51:46;1.74;91.88
68274;SHT30;55104;47.356;19.448;2023-02-15T07:54:48;1.94;91.47
68274;SHT30;55104;47.356;19.448;2023-02-15T07:57:51;2.17;90.56
68274;SHT30;55104;47.356;19.448;2023-02-15T08:00:55;2.39;89.93
68274;SHT30;55104;47.356;19.448;2023-02-15T08:04:00;2.49;89.54
68274;SHT30;55104;47.356;19.448;2023-02-15T08:07:02;2.54;89.29
68274;SHT30;55104;47.356;19.448;2023-02-15T08:10:06;2.74;89.09
68274;SHT30;55104;47.356;19.448;2023-02-15T08:13:08;2.94;88.58
68274;SHT30;55104;47.356;19.448;2023-02-15T08:16:10;3.07;87.92
68274;SHT30;55104;47.356;19.448;2023-02-15T08:19:19;3.28;87.37
68274;SHT30;55104;47.356;19.448;2023-02-15T08:22:21;3.47;87.31
68274;SHT30;55104;47.356;19.448;2023-02-15T08:25:23;3.63;85.49
68274;SHT30;55104;47.356;19.448;2023-02-15T08:28:25;3.73;85.25
68274;SHT30;55104;47.356;19.448;2023-02-15T08:31:28;3.85;84.72
68274;SHT30;55104;47.356;19.448;2023-02-15T08:34:33;3.88;84.56
68274;SHT30;55104;47.356;19.448;2023-02-15T08:37:35;4.01;83.97
68274;SHT30;55104;47.356;19.448;2023-02-15T08:40:38;4.15;84.07
68274;SHT30;55104;47.356;19.448;2023-02-15T08:43:40;4.18;83.45
68274;SHT30;55104;47.356;19.448;2023-02-15T08:46:44;4.28;83.64
68274;SHT30;55104;47.356;19.448;2023-02-15T08:49:47;4.38;83.66
68274;SHT30;55104;47.356;19.448;2023-02-15T08:52:52;4.49;83.39
68274;SHT30;55104;47.356;19.448;2023-02-15T08:55:58;4.57;83.06
68274;SHT30;55104;47.356;19.448;2023-02-15T08:59:01;4.70;83.13
68274;SHT30;55104;47.356;19.448;2023-02-15T09:02:03;4.85;82.05
68274;SHT30;55104;47.356;19.448;2023-02-15T09:05:06;4.97;81.64
68274;SHT30;55104;47.356;19.448;2023-02-15T09:08:08;5.08;81.62
68274;SHT30;55104;47.356;19.448;2023-02-15T09:11:21;5.18;80.86
68274;SHT30;55104;47.356;19.448;2023-02-15T09:14:25;5.19;80.94
68274;SHT30;55104;47.356;19.448;2023-02-15T09:17:28;5.32;81.02
68274;SHT30;55104;47.356;19.448;2023-02-15T09:20:30;5.43;81.11
68274;SHT30;55104;47.356;19.448;2023-02-15T09:23:33;5.50;79.74
68274;SHT30;55104;47.356;19.448;2023-02-15T09:26:37;5.52;80.72
68274;SHT30;55104;47.356;19.448;2023-02-15T09:29:42;5.75;79.57
68274;SHT30;55104;47.356;19.448;2023-02-15T09:32:44;5.90;78.18
68274;SHT30;55104;47.356;19.448;2023-02-15T09:35:47;5.97;77.23
68274;SHT30;55104;47.356;19.448;2023-02-15T09:39:03;6.06;78.80
68274;SHT30;55104;47.356;19.448;2023-02-15T09:46:57;6.33;76.26
68274;SHT30;55104;47.356;19.448;2023-02-15T09:52:56;6.47;76.55
68274;SHT30;55104;47.356;19.448;2023-02-15T09:56:15;6.50;75.92
68274;SHT30;55104;47.356;19.448;2023-02-15T09:59:41;6.50;75.51
68274;SHT30;55104;47.356;19.448;2023-02-15T10:16:41;7.23;73.68
68274;SHT30;55104;47.356;19.448;2023-02-15T10:29:38;7.63;72.07
68274;SHT30;55104;47.356;19.448;2023-02-15T10:32:53;7.71;72.00
68274;SHT30;55104;47.356;19.448;2023-02-15T10:42:49;8.30;71.23
68274;SHT30;55104;47.356;19.448;2023-02-15T10:56:46;8.80;68.23
68274;SHT30;55104;47.356;19.448;2023-02-15T11:06:34;8.83;67.44
68274;SHT30;55104;47.356;19.448;2023-02-15T11:09:41;8.67;66.47
68274;SHT30;55104;47.356;19.448;2023-02-15T11:12:45;8.70;67.59
68274;SHT30;55104;47.356;19.448;2023-02-15T11:22:01;9.29;66.09
68274;SHT30;55104;47.356;19.448;2023-02-15T11:25:17;9.33;65.00
68274;SHT30;55104;47.356;19.448;2023-02-15T11:28:47;9.39;65.82
68274;SHT30;55104;47.356;19.448;2023-02-15T11:31:50;9.57;64.93
68274;SHT30;55104;47.356;19.448;2023-02-15T11:35:50;9.56;65.32
68274;SHT30;55104;47.356;19.448;2023-02-15T11:38:29;9.39;63.93
68274;SHT30;55104;47.356;19.448;2023-02-15T11:41:36;9.50;64.45
68274;SHT30;55104;47.356;19.448;2023-02-15T11:44:55;9.66;63.27
68274;SHT30;55104;47.356;19.448;2023-02-15T11:48:00;9.53;63.20
68274;SHT30;55104;47.356;19.448;2023-02-15T11:51:03;9.39;63.39
68274;SHT30;55104;47.356;19.448;2023-02-15T11:54:08;9.51;63.45
68274;SHT30;55104;47.356;19.448;2023-02-15T11:57:15;9.35;63.39
68274;SHT30;55104;47.356;19.448;2023-02-15T12:07:28;9.49;64.31
68274;SHT30;55104;47.356;19.448;2023-02-15T12:10:40;9.56;63.72
68274;SHT30;55104;47.356;19.448;2023-02-15T12:13:59;9.42;63.67
68274;SHT30;55104;47.356;19.448;2023-02-15T12:17:01;9.57;63.64
68274;SHT30;55104;47.356;19.448;2023-02-15T12:20:21;9.53;63.15
68274;SHT30;55104;47.356;19.448;2023-02-15T12:23:28;9.42;63.57
68274;SHT30;55104;47.356;19.448;2023-02-15T12:26:34;9.54;63.03
68274;SHT30;55104;47.356;19.448;2023-02-15T12:29:42;9.49;62.92
68274;SHT30;55104;47.356;19.448;2023-02-15T12:36:20;9.78;61.95
68274;SHT30;55104;47.356;19.448;2023-02-15T12:39:32;9.58;62.44
68274;SHT30;55104;47.356;19.448;2023-02-15T12:42:42;9.58;62.85
68274;SHT30;55104;47.356;19.448;2023-02-15T12:45:45;9.93;62.81
68274;SHT30;55104;47.356;19.448;2023-02-15T12:49:37;9.95;62.31
68274;SHT30;55104;47.356;19.448;2023-02-15T12:55:25;9.71;61.17
68274;SHT30;55104;47.356;19.448;2023-02-15T12:58:36;9.73;61.26
68274;SHT30;55104;47.356;19.448;2023-02-15T13:01:39;9.74;61.23
68274;SHT30;55104;47.356;19.448;2023-02-15T13:04:48;9.57;60.39
68274;SHT30;55104;47.356;19.448;2023-02-15T13:07:54;9.78;60.32
68274;SHT30;55104;47.356;19.448;2023-02-15T13:11:08;9.77;60.03
68274;SHT30;55104;47.356;19.448;2023-02-15T13:14:24;9.76;60.34
68274;SHT30;55104;47.356;19.448;2023-02-15T13:17:30;9.74;60.75
68274;SHT30;55104;47.356;19.448;2023-02-15T13:20:35;9.40;60.98
68274;SHT30;55104;47.356;19.448;2023-02-15T13:23:44;9.39;60.88
68274;SHT30;55104;47.356;19.448;2023-02-15T13:26:47;9.44;61.61
68274;SHT30;55104;47.356;19.448;2023-02-15T13:29:53;9.23;61.78
68274;SHT30;55104;47.356;19.448;2023-02-15T13:36:30;9.16;61.64
68274;SHT30;55104;47.356;19.448;2023-02-15T13:42:46;9.02;62.72
68274;SHT30;55104;47.356;19.448;2023-02-15T13:46:12;9.16;61.97
68274;SHT30;55104;47.356;19.448;2023-02-15T13:52:32;9.15;62.33
68274;SHT30;55104;47.356;19.448;2023-02-15T13:56:06;9.11;62.12
68274;SHT30;55104;47.356;19.448;2023-02-15T14:03:11;9.19;62.33
68274;SHT30;55104;47.356;19.448;2023-02-15T14:17:03;8.73;62.30
68274;SHT30;55104;47.356;19.448;2023-02-15T14:23:48;8.84;62.58
68274;SHT30;55104;47.356;19.448;2023-02-15T14:30:10;8.68;62.85
68274;SHT30;55104;47.356;19.448;2023-02-15T14:36:18;8.54;62.27
68274;SHT30;55104;47.356;19.448;2023-02-15T14:39:29;8.46;62.38
68274;SHT30;55104;47.356;19.448;2023-02-15T14:43:01;8.28;63.66
68274;SHT30;55104;47.356;19.448;2023-02-15T14:46:50;8.19;64.07
68274;SHT30;55104;47.356;19.448;2023-02-15T14:49:44;8.09;64.30
68274;SHT30;55104;47.356;19.448;2023-02-15T14:56:26;7.97;65.37
68274;SHT30;55104;47.356;19.448;2023-02-15T15:02:50;7.85;65.80
68274;SHT30;55104;47.356;19.448;2023-02-15T15:05:56;7.69;66.53
68274;SHT30;55104;47.356;19.448;2023-02-15T15:09:18;7.49;66.85
68274;SHT30;55104;47.356;19.448;2023-02-15T15:18:47;7.32;67.67
68274;SHT30;55104;47.356;19.448;2023-02-15T15:24:53;7.08;68.44
68274;SHT30;55104;47.356;19.448;2023-02-15T15:27:55;6.95;69.19
68274;SHT30;55104;47.356;19.448;2023-02-15T15:41:27;6.49;71.99
68274;SHT30;55104;47.356;19.448;2023-02-15T15:48:31;6.18;73.29
68274;SHT30;55104;47.356;19.448;2023-02-15T15:51:39;6.06;73.62
68274;SHT30;55104;47.356;19.448;2023-02-15T15:54:43;5.87;74.11
68274;SHT30;55104;47.356;19.448;2023-02-15T15:57:51;5.74;74.69
68274;SHT30;55104;47.356;19.448;2023-02-15T16:01:14;5.50;75.71
68274;SHT30;55104;47.356;19.448;2023-02-15T16:04:28;5.38;76.20
68274;SHT30;55104;47.356;19.448;2023-02-15T16:07:31;5.19;76.49
68274;SHT30;55104;47.356;19.448;2023-02-15T16:10:34;5.09;77.10
68274;SHT30;55104;47.356;19.448;2023-02-15T16:13:42;4.91;77.32
68274;SHT30;55104;47.356;19.448;2023-02-15T16:16:51;4.80;78.02
68274;SHT30;55104;47.356;19.448;2023-02-15T16:20:27;4.66;78.30
68274;SHT30;55104;47.356;19.448;2023-02-15T16:29:47;4.26;79.60
68274;SHT30;55104;47.356;19.448;2023-02-15T16:32:54;4.09;80.50
68274;SHT30;55104;47.356;19.448;2023-02-15T16:35:58;3.95;81.03
68274;SHT30;55104;47.356;19.448;2023-02-15T16:39:18;3.80;81.34
68274;SHT30;55104;47.356;19.448;2023-02-15T16:42:20;3.66;81.80
68274;SHT30;55104;47.356;19.448;2023-02-15T16:45:26;3.53;82.02
68274;SHT30;55104;47.356;19.448;2023-02-15T16:48:28;3.42;82.51
68274;SHT30;55104;47.356;19.448;2023-02-15T16:51:32;3.32;82.74
68274;SHT30;55104;47.356;19.448;2023-02-15T16:54:35;3.22;82.95
68274;SHT30;55104;47.356;19.448;2023-02-15T16:57:38;3.11;83.21
68274;SHT30;55104;47.356;19.448;2023-02-15T17:00:44;3.01;83.46
68274;SHT30;55104;47.356;19.448;2023-02-15T17:03:49;2.91;83.57
68274;SHT30;55104;47.356;19.448;2023-02-15T17:06:59;2.79;83.98
68274;SHT30;55104;47.356;19.448;2023-02-15T17:10:02;2.73;83.90
68274;SHT30;55104;47.356;19.448;2023-02-15T17:13:17;2.66;84.12
68274;SHT30;55104;47.356;19.448;2023-02-15T17:16:27;2.50;84.31
68274;SHT30;55104;47.356;19.448;2023-02-15T17:19:32;2.40;84.88
68274;SHT30;55104;47.356;19.448;2023-02-15T17:22:39;2.29;85.09
68274;SHT30;55104;47.356;19.448;2023-02-15T17:25:41;2.22;85.04
68274;SHT30;55104;47.356;19.448;2023-02-15T17:28:47;2.11;85.19
68274;SHT30;55104;47.356;19.448;2023-02-15T17:31:51;1.99;85.37
68274;SHT30;55104;47.356;19.448;2023-02-15T17:35:00;1.91;85.80
68274;SHT30;55104;47.356;19.448;2023-02-15T17:38:17;1.82;85.81
68274;SHT30;55104;47.356;19.448;2023-02-15T17:41:20;1.74;86.11
68274;SHT30;55104;47.356;19.448;2023-02-15T17:44:22;1.63;86.30
68274;SHT30;55104;47.356;19.448;2023-02-15T17:47:24;1.56;86.54
68274;SHT30;55104;47.356;19.448;2023-02-15T17:50:29;1.49;86.71
68274;SHT30;55104;47.356;19.448;2023-02-15T17:53:32;1.39;86.90
68274;SHT30;55104;47.356;19.448;2023-02-15T17:56:36;1.33;86.89
68274;SHT30;55104;47.356;19.448;2023-02-15T17:59:39;1.28;87.21
68274;SHT30;55104;47.356;19.448;2023-02-15T18:03:01;1.19;86.92
68274;SHT30;55104;47.356;19.448;2023-02-15T18:06:22;1.11;87.32
68274;SHT30;55104;47.356;19.448;2023-02-15T18:09:43;1.07;86.90
68274;SHT30;55104;47.356;19.448;2023-02-15T18:13:05;0.99;87.20
68274;SHT30;55104;47.356;19.448;2023-02-15T18:16:16;0.88;87.57
68274;SHT30;55104;47.356;19.448;2023-02-15T18:19:22;0.81;87.59
68274;SHT30;55104;47.356;19.448;2023-02-15T18:22:27;0.81;88.05
68274;SHT30;55104;47.356;19.448;2023-02-15T18:25:30;0.71;88.09
68274;SHT30;55104;47.356;19.448;2023-02-15T18:28:32;0.67;88.12
68274;SHT30;55104;47.356;19.448;2023-02-15T18:31:35;0.59;88.24
68274;SHT30;55104;47.356;19.448;2023-02-15T18:34:39;0.53;88.73
68274;SHT30;55104;47.356;19.448;2023-02-15T18:37:44;0.48;88.74
68274;SHT30;55104;47.356;19.448;2023-02-15T18:40:47;0.45;88.54
68274;SHT30;55104;47.356;19.448;2023-02-15T18:43:52;0.39;88.99
68274;SHT30;55104;47.356;19.448;2023-02-15T18:46:58;0.36;88.94
68274;SHT30;55104;47.356;19.448;2023-02-15T18:50:00;0.32;89.15
68274;SHT30;55104;47.356;19.448;2023-02-15T18:53:06;0.28;89.30
68274;SHT30;55104;47.356;19.448;2023-02-15T18:56:17;0.22;89.55
68274;SHT30;55104;47.356;19.448;2023-02-15T18:59:20;0.16;89.63
68274;SHT30;55104;47.356;19.448;2023-02-15T19:02:23;0.11;89.78
68274;SHT30;55104;47.356;19.448;2023-02-15T19:05:27;0.05;89.65
68274;SHT30;55104;47.356;19.448;2023-02-15T19:08:30;0.02;89.79
68274;SHT30;55104;47.356;19.448;2023-02-15T19:11:33;-0.03;89.80
68274;SHT30;55104;47.356;19.448;2023-02-15T19:14:35;-0.06;89.75
68274;SHT30;55104;47.356;19.448;2023-02-15T19:17:38;-0.09;90.09
68274;SHT30;55104;47.356;19.448;2023-02-15T19:20:43;-0.10;90.38
68274;SHT30;55104;47.356;19.448;2023-02-15T19:23:51;-0.14;90.53
68274;SHT30;55104;47.356;19.448;2023-02-15T19:26:54;-0.17;90.60
68274;SHT30;55104;47.356;19.448;2023-02-15T19:29:58;-0.20;90.78
68274;SHT30;55104;47.356;19.448;2023-02-15T19:33:01;-0.23;90.85
68274;SHT30;55104;47.356;19.448;2023-02-15T19:36:12;-0.29;90.98
68274;SHT30;55104;47.356;19.448;2023-02-15T19:39:36;-0.27;90.90
68274;SHT30;55104;47.356;19.448;2023-02-15T19:42:40;-0.38;90.09
68274;SHT30;55104;47.356;19.448;2023-02-15T19:45:44;-0.47;89.74
68274;SHT30;55104;47.356;19.448;2023-02-15T19:48:50;-0.51;89.70
68274;SHT30;55104;47.356;19.448;2023-02-15T19:51:53;-0.54;89.42
68274;SHT30;55104;47.356;19.448;2023-02-15T19:58:01;-0.58;90.45
68274;SHT30;55104;47.356;19.448;2023-02-15T20:01:03;-0.58;90.61
68274;SHT30;55104;47.356;19.448;2023-02-15T20:04:06;-0.57;90.95
68274;SHT30;55104;47.356;19.448;2023-02-15T20:07:26;-0.62;90.82
68274;SHT30;55104;47.356;19.448;2023-02-15T20:10:30;-0.60;91.64
68274;SHT30;55104;47.356;19.448;2023-02-15T20:13:33;-0.65;91.48
68274;SHT30;55104;47.356;19.448;2023-02-15T20:16:35;-0.64;91.51
68274;SHT30;55104;47.356;19.448;2023-02-15T20:19:37;-0.74;90.81
68274;SHT30;55104;47.356;19.448;2023-02-15T20:22:43;-0.79;90.11
68274;SHT30;55104;47.356;19.448;2023-02-15T20:25:46;-0.82;90.26
68274;SHT30;55104;47.356;19.448;2023-02-15T20:28:48;-0.89;91.02
68274;SHT30;55104;47.356;19.448;2023-02-15T20:31:51;-0.89;91.42
68274;SHT30;55104;47.356;19.448;2023-02-15T20:34:56;-0.88;90.73
68274;SHT30;55104;47.356;19.448;2023-02-15T20:37:58;-0.89;90.50
68274;SHT30;55104;47.356;19.448;2023-02-15T20:41:01;-0.95;90.46
68274;SHT30;55104;47.356;19.448;2023-02-15T20:44:26;-0.99;90.68
68274;SHT30;55104;47.356;19.448;2023-02-15T20:47:29;-1.00;91.22
68274;SHT30;55104;47.356;19.448;2023-02-15T20:50:33;-0.97;91.84
68274;SHT30;55104;47.356;19.448;2023-02-15T20:53:36;-0.97;91.52
68274;SHT30;55104;47.356;19.448;2023-02-15T20:56:39;-0.95;91.02
68274;SHT30;55104;47.356;19.448;2023-02-15T20:59:41;-1.02;90.85
68274;SHT30;55104;47.356;19.448;2023-02-15T21:02:46;-1.10;90.37
68274;SHT30;55104;47.356;19.448;2023-02-15T21:05:49;-1.16;90.79
68274;SHT30;55104;47.356;19.448;2023-02-15T21:08:52;-1.21;90.67
68274;SHT30;55104;47.356;19.448;2023-02-15T21:11:57;-1.23;90.94
68274;SHT30;55104;47.356;19.448;2023-02-15T21:15:00;-1.16;90.98
68274;SHT30;55104;47.356;19.448;2023-02-15T21:18:06;-1.17;90.95
68274;SHT30;55104;47.356;19.448;2023-02-15T21:21:16;-1.21;91.84
68274;SHT30;55104;47.356;19.448;2023-02-15T21:27:21;-1.27;92.46
68274;SHT30;55104;47.356;19.448;2023-02-15T21:30:24;-1.29;92.79
68274;SHT30;55104;47.356;19.448;2023-02-15T21:33:26;-1.34;92.27
68274;SHT30;55104;47.356;19.448;2023-02-15T21:36:29;-1.32;91.52
68274;SHT30;55104;47.356;19.448;2023-02-15T21:39:34;-1.30;91.34
68274;SHT30;55104;47.356;19.448;2023-02-15T21:42:36;-1.36;91.51
68274;SHT30;55104;47.356;19.448;2023-02-15T21:45:57;-1.41;91.54
68274;SHT30;55104;47.356;19.448;2023-02-15T21:48:59;-1.40;92.02
68274;SHT30;55104;47.356;19.448;2023-02-15T21:52:02;-1.44;92.82
68274;SHT30;55104;47.356;19.448;2023-02-15T21:55:14;-1.47;92.88
68274;SHT30;55104;47.356;19.448;2023-02-15T21:58:19;-1.46;92.42
68274;SHT30;55104;47.356;19.448;2023-02-15T22:01:24;-1.47;92.52
68274;SHT30;55104;47.356;19.448;2023-02-15T22:04:29;-1.47;92.12
68274;SHT30;55104;47.356;19.448;2023-02-15T22:07:31;-1.46;92.09
68274;SHT30;55104;47.356;19.448;2023-02-15T22:10:33;-1.50;93.09
68274;SHT30;55104;47.356;19.448;2023-02-15T22:13:35;-1.50;93.20
68274;SHT30;55104;47.356;19.448;2023-02-15T22:16:37;-1.51;92.86
68274;SHT30;55104;47.356;19.448;2023-02-15T22:19:39;-1.52;93.41
68274;SHT30;55104;47.356;19.448;2023-02-15T22:22:42;-1.54;93.97
68274;SHT30;55104;47.356;19.448;2023-02-15T22:25:47;-1.51;94.04